Last 24 Hours

Coyote Canyon

10 Minute Data | America/Los_Angeles
as of 9/3/26 2:11 PM PDT
Date & Time Temp (°F) Dew Pt (°F) RH (%) Wind Spd (mph) Wind Dir (°) Wind Gust (mph) Wind Gst Dir (°) Daily Max Temp (°F) Daily Min Temp (°F)
9/3/26 - 1410 76.7 37.8 25 15.5 WNW | 297 27.0 WNW | 295 78.0 56.3
9/3/26 - 1400 76.6 37.8 25 15.7 WNW | 288 23.5 WNW | 297 78.0 56.3
9/3/26 - 1350 76.7 36.0 23 15.4 W | 274 23.8 WNW | 292 78.0 56.3
9/3/26 - 1340 76.4 36.0 23 13.6 WNW | 283 26.2 WNW | 299 77.6 56.3
9/3/26 - 1330 76.1 35.5 23 15.5 WNW | 283 23.6 WNW | 292 77.1 56.3
9/3/26 - 1320 75.9 35.9 23 16.7 WNW | 290 24.7 WNW | 283 77.1 56.3
9/3/26 - 1310 76.2 35.2 23 15.2 W | 280 24.8 WNW | 288 77.1 56.3
9/3/26 - 1300 75.7 34.1 22 14.4 WNW | 290 24.1 WNW | 294 76.8 56.3
9/3/26 - 1250 75.8 32.9 21 12.9 W | 280 22.4 WNW | 294 76.8 56.3
9/3/26 - 1240 75.6 32.7 21 14.0 W | 281 22.9 W | 272 76.6 56.3
9/3/26 - 1230 75.1 32.0 21 14.3 WNW | 294 27.4 W | 281 76.4 56.3
9/3/26 - 1220 74.9 31.0 20 14.8 WNW | 301 23.2 NW | 310 76.4 56.3
9/3/26 - 1210 74.6 30.1 19 12.5 WNW | 297 23.3 WNW | 287 76.4 56.3
9/3/26 - 1200 74.3 29.9 19 15.0 WNW | 300 23.8 WNW | 299 76.4 56.3
9/3/26 - 1150 74.3 29.9 19 13.8 W | 270 23.3 W | 281 76.4 56.3
9/3/26 - 1140 75.2 29.6 19 10.9 W | 271 19.1 W | 280 76.4 56.3
9/3/26 - 1130 74.4 27.9 18 12.4 W | 266 21.2 W | 267 75.6 56.3
9/3/26 - 1120 74.6 26.6 17 11.6 W | 274 20.5 W | 275 75.6 56.3
9/3/26 - 1110 74.1 24.5 16 13.6 W | 274 23.7 WNW | 285 74.8 56.3
9/3/26 - 1100 73.1 22.6 15 15.5 WNW | 290 26.9 WNW | 285 74.1 56.3
9/3/26 - 1050 73.2 22.2 15 16.3 WNW | 291 23.2 WNW | 294 74.1 56.3
9/3/26 - 1040 72.2 26.0 18 14.9 NW | 305 22.1 WNW | 287 72.9 56.3
9/3/26 - 1030 71.4 26.4 19 15.6 NW | 309 23.0 NW | 308 72.1 56.3
9/3/26 - 1020 71.0 26.7 19 14.4 NW | 308 21.8 NW | 309 71.5 56.3
9/3/26 - 1010 70.7 27.5 20 15.7 WNW | 298 24.7 NW | 308 71.2 56.3
9/3/26 - 1000 70.4 28.1 20 15.7 WNW | 299 23.8 NW | 304 70.9 56.3
9/3/26 - 0950 69.5 27.3 21 16.7 NW | 308 23.4 NW | 318 70.8 56.3
9/3/26 - 0940 68.8 26.1 20 17.0 WNW | 296 23.3 WNW | 302 68.9 56.3
9/3/26 - 0930 68.2 27.2 21 17.0 WNW | 300 26.1 WNW | 290 68.6 56.3
9/3/26 - 0920 67.7 26.3 21 18.5 WNW | 297 26.7 WNW | 295 68.0 56.3
9/3/26 - 0910 67.4 24.4 20 17.3 WNW | 297 24.6 WNW | 294 67.9 56.3
9/3/26 - 0900 66.8 21.9 18 16.9 WNW | 299 22.9 WNW | 294 67.5 56.3
9/3/26 - 0850 66.1 20.4 17 17.2 WNW | 299 22.0 WNW | 298 66.3 56.3
9/3/26 - 0840 65.8 16.9 15 16.7 WNW | 297 22.4 WNW | 292 66.0 56.3
9/3/26 - 0830 65.5 13.7 13 14.2 WNW | 299 19.6 WNW | 299 66.0 56.3
9/3/26 - 0820 65.1 12.3 13 16.0 WNW | 296 20.6 WNW | 290 65.3 56.3
9/3/26 - 0810 64.6 10.5 12 15.6 WNW | 298 20.6 WNW | 294 64.9 56.3
9/3/26 - 0800 64.0 8.2 11 16.8 WNW | 300 20.8 WNW | 296 64.3 56.3
9/3/26 - 0750 63.1 6.3 10 14.3 WNW | 299 18.1 WNW | 302 63.6 56.3
9/3/26 - 0740 62.0 8.1 12 14.3 WNW | 301 18.1 NW | 304 62.3 56.3
9/3/26 - 0730 61.9 8.3 12 14.0 WNW | 300 17.4 WNW | 302 62.1 56.3
9/3/26 - 0720 61.1 10.8 14 13.2 NW | 304 17.2 WNW | 299 61.6 56.3
9/3/26 - 0710 60.3 14.0 16 13.1 NW | 305 17.0 NW | 312 60.7 56.3
9/3/26 - 0700 59.8 15.6 18 11.7 NW | 304 14.5 WNW | 299 60.2 56.3
9/3/26 - 0650 59.5 17.4 19 11.6 NW | 305 14.7 NW | 318 60.1 56.3
9/3/26 - 0640 59.8 18.3 20 12.0 NW | 304 15.1 NW | 324 60.1 56.3
9/3/26 - 0630 59.8 19.1 20 12.0 NW | 305 15.4 NW | 306 60.0 56.3
9/3/26 - 0620 59.6 20.5 22 11.8 NW | 307 14.9 NW | 308 60.0 56.3
9/3/26 - 0610 59.2 22.2 24 12.6 WNW | 303 15.3 NW | 308 60.0 56.3
9/3/26 - 0600 59.2 22.5 24 13.3 WNW | 301 15.9 NW | 305 60.0 56.3
9/3/26 - 0550 59.3 22.2 24 12.8 WNW | 303 16.4 WNW | 300 60.0 56.3
9/3/26 - 0540 59.8 22.9 24 13.1 NW | 306 16.4 NW | 308 60.0 56.3
9/3/26 - 0530 59.8 23.6 25 13.0 NW | 308 15.9 NW | 306 59.8 56.3
9/3/26 - 0520 59.4 25.2 27 12.7 NW | 308 15.7 NW | 305 59.7 56.3
9/3/26 - 0510 59.5 25.8 27 12.7 NW | 308 16.5 NW | 306 59.7 56.3
9/3/26 - 0500 59.3 27.3 29 13.0 NW | 310 16.0 NW | 304 59.6 56.3
9/3/26 - 0450 59.1 26.9 29 12.2 NW | 309 16.2 NW | 316 59.3 56.3
9/3/26 - 0440 58.8 24.6 27 12.1 NW | 307 15.4 WNW | 303 59.3 56.3
9/3/26 - 0430 59.0 24.5 26 13.0 NW | 309 17.0 NW | 307 59.3 56.3
9/3/26 - 0420 58.7 26.1 28 14.3 NW | 308 19.1 NW | 312 58.9 56.3
9/3/26 - 0410 58.5 27.3 30 15.2 NW | 308 19.3 NW | 307 58.9 56.3
9/3/26 - 0400 58.1 28.6 32 14.1 NW | 306 18.7 NW | 305 58.9 56.3
9/3/26 - 0350 57.9 30.5 35 13.2 NW | 304 17.2 WNW | 302 58.9 56.3
9/3/26 - 0340 57.8 32.4 38 13.5 WNW | 303 17.6 WNW | 299 58.9 56.3
9/3/26 - 0330 57.4 33.9 41 13.7 WNW | 303 17.1 WNW | 303 58.9 56.3
9/3/26 - 0320 57.4 34.4 42 14.5 NW | 305 18.1 WNW | 300 58.9 56.3
9/3/26 - 0310 57.3 35.1 43 14.2 NW | 304 18.2 NW | 306 58.9 56.3
9/3/26 - 0300 58.4 35.6 42 14.3 NW | 306 18.2 NW | 307 58.9 56.3
9/3/26 - 0250 58.7 36.5 43 15.0 NW | 310 18.3 NW | 309 58.9 56.3
9/3/26 - 0240 58.6 37.5 45 14.1 NW | 312 18.0 NW | 312 58.9 56.3
9/3/26 - 0230 58.4 37.9 46 13.3 NW | 310 16.2 NW | 308 58.9 56.3
9/3/26 - 0220 58.4 37.4 45 12.6 NW | 309 16.4 NW | 310 58.9 56.3
9/3/26 - 0210 58.4 36.5 44 12.8 NW | 309 16.4 NW | 309 58.9 56.3
9/3/26 - 0200 58.6 36.7 44 14.2 NW | 310 18.4 NW | 316 58.9 56.3
9/3/26 - 0150 58.7 36.0 43 15.4 NW | 310 18.6 NW | 311 58.9 56.3
9/3/26 - 0140 58.3 34.9 41 15.4 NW | 308 19.6 NW | 309 58.6 56.3
9/3/26 - 0130 58.3 34.7 41 16.2 NW | 307 21.7 NW | 304 58.4 56.3
9/3/26 - 0120 57.3 34.4 42 16.4 NW | 304 20.2 WNW | 303 58.2 56.3
9/3/26 - 0110 56.7 34.7 43 15.0 WNW | 303 18.1 WNW | 303 57.5 56.3
9/3/26 - 0100 58.6 35.6 42 13.5 NW | 308 16.9 NW | 307 80.0 57.5
9/3/26 - 0050 60.5 36.8 41 14.9 NW | 314 18.6 NW | 314 80.0 57.6
9/3/26 - 0040 60.9 36.8 41 16.6 NW | 320 21.6 NW | 322 80.0 57.6
9/3/26 - 0030 61.1 37.0 41 18.3 NW | 322 23.0 NW | 312 80.0 57.6
9/3/26 - 0020 61.1 37.7 42 18.6 NW | 320 24.4 NW | 318 80.0 57.6
9/3/26 - 0010 61.1 38.6 43 19.2 NW | 318 23.5 NW | 316 80.0 57.6
9/3/26 - 0000 60.9 39.3 45 19.3 NW | 318 24.3 NW | 320 80.0 57.6
9/2/26 - 2350 60.3 39.6 46 19.5 NW | 316 23.3 NW | 311 80.0 57.6
9/2/26 - 2340 59.5 39.4 47 17.0 NW | 313 22.9 NW | 312 80.0 57.6
9/2/26 - 2330 59.6 38.8 46 18.4 NW | 312 23.4 NW | 316 80.0 57.6
9/2/26 - 2320 59.6 37.5 44 17.8 NW | 312 22.5 NW | 316 80.0 57.6
9/2/26 - 2310 59.2 35.7 41 16.3 NW | 308 21.9 NW | 304 80.0 57.6
9/2/26 - 2300 59.4 34.3 39 15.9 NW | 304 22.1 NW | 305 80.0 57.6
9/2/26 - 2250 59.5 32.3 36 15.3 NW | 305 19.5 NW | 310 80.0 57.6
9/2/26 - 2240 60.2 30.8 33 15.7 NW | 305 19.8 WNW | 302 80.0 57.6
9/2/26 - 2230 60.8 29.5 30 14.6 NW | 305 19.4 NW | 304 80.0 57.6
9/2/26 - 2220 62.4 27.6 27 13.0 NW | 312 17.1 NW | 315 80.0 57.6
9/2/26 - 2210 63.2 26.9 25 14.0 NW | 319 18.9 NW | 326 80.0 57.6
9/2/26 - 2200 63.8 26.9 25 14.9 NW | 320 19.5 NW | 325 80.0 57.6
9/2/26 - 2150 63.5 28.2 26 11.1 NW | 324 17.1 NNW | 333 80.0 57.6
9/2/26 - 2140 63.2 30.2 29 11.6 NW | 321 18.2 NW | 325 80.0 57.6
9/2/26 - 2130 61.9 33.2 34 10.9 NW | 317 15.0 NNW | 328 80.0 57.6
9/2/26 - 2120 61.2 33.9 36 11.8 NW | 313 16.3 NW | 312 80.0 57.6
9/2/26 - 2110 61.4 33.8 35 12.8 NW | 309 19.4 NW | 309 80.0 57.6
9/2/26 - 2100 62.0 33.3 34 11.2 NW | 311 18.3 NW | 319 80.0 57.6
9/2/26 - 2050 62.4 33.4 34 11.5 NW | 304 19.6 WNW | 295 80.0 57.6
9/2/26 - 2040 62.4 34.1 35 15.4 WNW | 299 21.3 NW | 309 80.0 57.6
9/2/26 - 2030 62.8 34.6 35 15.7 WNW | 298 21.4 WNW | 295 80.0 57.6
9/2/26 - 2020 63.3 35.7 36 16.3 WNW | 297 20.8 WNW | 299 80.0 57.6
9/2/26 - 2010 64.2 36.2 35 16.1 WNW | 296 21.2 WNW | 297 80.0 57.6
9/2/26 - 2000 64.8 36.6 35 13.9 WNW | 293 19.4 WNW | 298 80.0 57.6
9/2/26 - 1950 65.8 36.5 34 12.9 WNW | 299 18.0 WNW | 295 80.0 57.6
9/2/26 - 1940 66.5 37.8 35 10.4 WNW | 300 15.9 WNW | 292 80.0 57.6
9/2/26 - 1930 67.6 38.2 34 12.1 WNW | 289 17.2 WNW | 288 80.0 57.6
9/2/26 - 1920 68.5 38.1 33 12.0 W | 280 17.3 W | 272 80.0 57.6
9/2/26 - 1910 69.4 36.9 30 14.0 WNW | 284 20.2 W | 276 80.0 57.6
9/2/26 - 1900 70.4 35.2 27 13.7 WNW | 282 19.6 W | 281 80.0 57.6
9/2/26 - 1850 71.5 32.2 23 14.5 W | 279 20.5 W | 278 80.0 57.6
9/2/26 - 1840 72.1 31.3 22 16.9 W | 280 23.2 W | 278 80.0 57.6
9/2/26 - 1830 73.2 29.2 20 15.1 W | 276 21.7 W | 275 80.0 57.6
9/2/26 - 1820 73.8 26.0 17 14.8 WNW | 282 20.9 WNW | 284 80.0 57.6
9/2/26 - 1810 74.4 25.1 16 15.0 WNW | 288 21.7 WNW | 282 80.0 57.6
9/2/26 - 1800 74.6 26.4 17 15.6 WNW | 291 23.4 WNW | 289 80.0 57.6
9/2/26 - 1750 74.8 30.5 20 15.2 WNW | 286 22.3 WNW | 290 80.0 57.6
9/2/26 - 1740 74.9 31.1 20 17.5 WNW | 288 23.8 WNW | 296 80.0 57.6
9/2/26 - 1730 75.3 30.6 19 16.8 WNW | 284 23.3 WNW | 295 80.0 57.6
9/2/26 - 1720 75.4 34.1 22 18.8 WNW | 284 26.2 WNW | 296 80.0 57.6
9/2/26 - 1710 75.3 36.3 24 18.4 WNW | 283 26.7 WNW | 287 80.0 57.6
9/2/26 - 1700 75.6 36.9 25 21.4 WNW | 291 30.0 WNW | 298 80.0 57.6
9/2/26 - 1650 75.8 38.0 26 19.3 WNW | 287 30.9 WNW | 292 80.0 57.6
9/2/26 - 1640 76.3 38.4 26 20.3 WNW | 290 31.0 WNW | 291 80.0 57.6
9/2/26 - 1630 76.5 39.6 26 18.2 W | 277 25.9 W | 259 80.0 57.6
9/2/26 - 1620 76.4 39.7 27 18.8 WNW | 289 29.2 WNW | 285 80.0 57.6
9/2/26 - 1610 76.7 39.6 26 18.0 W | 281 25.0 WNW | 286 80.0 57.6
9/2/26 - 1600 77.1 39.1 25 17.5 WNW | 286 27.2 WNW | 288 80.0 57.6
9/2/26 - 1550 77.4 39.0 25 15.9 W | 274 25.5 W | 274 80.0 57.6
9/2/26 - 1540 77.1 37.5 24 18.5 WNW | 286 31.6 W | 266 80.0 57.6
9/2/26 - 1530 77.5 37.4 24 18.0 W | 277 29.4 W | 269 80.0 57.6
9/2/26 - 1520 77.4 37.1 23 17.4 W | 274 24.6 W | 261 80.0 57.6
9/2/26 - 1510 78.5 37.0 22 16.1 W | 273 24.4 WNW | 300 80.0 57.6
9/2/26 - 1500 78.6 35.7 21 16.2 W | 266 29.6 W | 260 80.0 57.6
9/2/26 - 1450 78.9 34.7 20 16.2 W | 260 25.1 WSW | 257 80.0 57.6
9/2/26 - 1440 78.2 34.6 21 16.2 W | 268 28.5 WNW | 293 80.0 57.6
9/2/26 - 1430 78.6 34.6 20 14.9 W | 259 25.8 WSW | 250 80.0 57.6
9/2/26 - 1420 78.5 32.8 19 16.8 W | 267 26.6 WNW | 299 79.9 57.6
9/2/26 - 1410 78.7 32.8 19 15.8 W | 272 27.0 W | 262 79.9 57.6
Max 78.9 39.7 47 21.4 - 31.6 - 80.0 57.6
Avg 66.7 30.4 27 15.0 - 21.3 - - -
Min 56.7 6.3 10 10.4 - 14.5 - 57.5 56.3